createdAt,value
2019-05-01T00:02:35.493Z,12.10
2019-05-01T00:05:16.984Z,12.00
2019-05-01T00:07:47.241Z,11.90
2019-05-01T00:10:18.707Z,11.90
2019-05-01T00:12:48.328Z,11.80
2019-05-01T00:15:21.732Z,11.70
2019-05-01T00:17:51.443Z,11.70
2019-05-01T00:20:21.244Z,11.60
2019-05-01T00:22:50.843Z,11.60
2019-05-01T00:25:20.525Z,11.60
2019-05-01T00:27:50.238Z,11.50
2019-05-01T00:30:29.674Z,11.50
2019-05-01T00:32:53.066Z,11.50
2019-05-01T00:35:24.324Z,11.40
2019-05-01T00:37:54.103Z,11.40
2019-05-01T00:40:25.285Z,11.40
2019-05-01T00:42:56.724Z,11.30
2019-05-01T00:45:26.347Z,11.30
2019-05-01T00:47:55.961Z,11.40
2019-05-01T00:50:25.532Z,11.30
2019-05-01T00:52:55.220Z,11.30
2019-05-01T00:55:32.082Z,11.30
2019-05-01T00:58:04.866Z,11.20
2019-05-01T01:00:47.979Z,11.20
2019-05-01T01:03:18.645Z,11.20
2019-05-01T01:05:48.194Z,11.10
2019-05-01T01:08:17.957Z,11.10
2019-05-01T01:10:47.508Z,11.10
2019-05-01T01:13:17.277Z,11.10
2019-05-01T01:15:47.008Z,11.00
2019-05-01T01:18:16.577Z,11.00
2019-05-01T01:20:46.215Z,11.00
2019-05-01T01:23:16.881Z,10.90
2019-05-01T01:25:46.745Z,10.90
2019-05-01T01:28:17.073Z,10.80
2019-05-01T01:30:56.112Z,10.80
2019-05-01T01:33:18.881Z,10.80
2019-05-01T01:35:49.879Z,10.80
2019-05-01T01:38:19.416Z,10.70
2019-05-01T01:40:49.306Z,10.70
2019-05-01T01:43:36.964Z,10.70
2019-05-01T01:46:08.595Z,10.70
2019-05-01T01:48:38.409Z,10.60
2019-05-01T01:51:08.090Z,10.60
2019-05-01T01:53:37.817Z,10.60
2019-05-01T01:56:07.591Z,10.60
2019-05-01T01:58:39.130Z,10.60
2019-05-01T02:01:13.113Z,10.60
2019-05-01T02:04:00.834Z,10.60
2019-05-01T02:06:30.662Z,10.50
2019-05-01T02:09:00.418Z,10.50
2019-05-01T02:11:31.652Z,10.50
2019-05-01T02:14:01.365Z,10.50
2019-05-01T02:16:31.146Z,10.40
2019-05-01T02:19:00.831Z,10.50
2019-05-01T02:21:30.400Z,10.40
2019-05-01T02:24:00.220Z,10.40
2019-05-01T02:26:34.402Z,10.30
2019-05-01T02:29:23.757Z,10.40
2019-05-01T02:31:54.547Z,10.40
2019-05-01T02:34:25.717Z,10.40
2019-05-01T02:36:59.947Z,10.50
2019-05-01T02:39:32.416Z,10.50
2019-05-01T02:42:02.753Z,10.50
2019-05-01T02:44:38.323Z,10.40
2019-05-01T02:47:10.710Z,10.40
2019-05-01T02:49:43.327Z,10.40
2019-05-01T02:52:13.551Z,10.40
2019-05-01T02:54:46.111Z,10.40
2019-05-01T02:57:20.686Z,10.30
2019-05-01T02:59:52.931Z,10.30
2019-05-01T03:02:25.411Z,10.30
2019-05-01T03:04:56.741Z,10.20
2019-05-01T03:07:29.383Z,10.20
2019-05-01T03:09:59.392Z,10.10
2019-05-01T03:12:30.831Z,10.10
2019-05-01T03:15:03.245Z,10.10
2019-05-01T03:17:48.335Z,10.10
2019-05-01T03:20:35.960Z,10.10
2019-05-01T03:23:13.715Z,10.10
2019-05-01T03:25:43.871Z,10.00
2019-05-01T03:28:14.453Z,10.00
2019-05-01T03:30:44.340Z,10.10
2019-05-01T03:33:14.436Z,10.10
2019-05-01T03:35:43.386Z,10.10
2019-05-01T03:38:13.014Z,10.10
2019-05-01T03:40:42.872Z,10.10
2019-05-01T03:43:13.423Z,10.10
2019-05-01T03:45:44.116Z,10.10
2019-05-01T03:48:13.840Z,10.00
2019-05-01T03:50:46.849Z,10.10
2019-05-01T03:53:14.881Z,10.10
2019-05-01T03:55:44.903Z,10.10
2019-05-01T03:58:13.929Z,10.10
2019-05-01T04:00:45.215Z,10.20
2019-05-01T04:03:25.782Z,10.10
2019-05-01T04:05:55.758Z,10.10
2019-05-01T04:08:24.642Z,10.10
2019-05-01T04:10:55.831Z,10.00
2019-05-01T04:13:26.067Z,10.00
2019-05-01T04:15:56.113Z,10.00
2019-05-01T04:18:26.931Z,9.90
2019-05-01T04:20:56.807Z,9.90
2019-05-01T04:23:26.514Z,9.90
2019-05-01T04:25:56.448Z,9.90
2019-05-01T04:28:27.115Z,9.90
2019-05-01T04:31:01.069Z,10.00
2019-05-01T04:33:31.939Z,9.90
2019-05-01T04:36:12.418Z,10.00
2019-05-01T04:38:49.505Z,10.00
2019-05-01T04:41:19.366Z,10.00
2019-05-01T04:43:49.283Z,10.00
2019-05-01T04:46:19.094Z,10.00
2019-05-01T04:48:50.851Z,10.00
2019-05-01T04:51:20.532Z,10.00
2019-05-01T04:53:51.331Z,10.00
2019-05-01T04:56:21.137Z,10.00
2019-05-01T04:58:51.476Z,10.10
2019-05-01T05:01:21.769Z,10.10
2019-05-01T05:03:51.575Z,10.20
2019-05-01T05:06:22.882Z,10.30
2019-05-01T05:08:53.109Z,10.40
2019-05-01T05:11:24.590Z,10.50
2019-05-01T05:14:14.325Z,10.50
2019-05-01T05:16:46.019Z,10.70
2019-05-01T05:19:15.799Z,10.80
2019-05-01T05:21:45.611Z,10.90
2019-05-01T05:24:15.457Z,11.00
2019-05-01T05:26:46.027Z,11.10
2019-05-01T05:29:19.111Z,11.20
2019-05-01T05:31:50.871Z,11.20
2019-05-01T05:34:20.928Z,11.40
2019-05-01T05:36:53.039Z,11.50
2019-05-01T05:39:27.456Z,11.60
2019-05-01T05:42:01.265Z,11.70
2019-05-01T05:44:31.124Z,11.80
2019-05-01T05:47:00.946Z,11.90
2019-05-01T05:49:31.665Z,12.00
2019-05-01T05:52:28.162Z,12.10
2019-05-01T05:55:02.157Z,12.20
2019-05-01T05:57:39.422Z,12.30
2019-05-01T06:00:19.544Z,12.40
2019-05-01T06:02:53.998Z,12.60
2019-05-01T06:05:28.307Z,12.80
2019-05-01T06:08:18.758Z,12.90
2019-05-01T06:10:58.668Z,13.00
2019-05-01T06:13:35.019Z,13.10
2019-05-01T06:16:22.269Z,13.20
2019-05-01T06:19:03.862Z,13.30
2019-05-01T06:21:35.941Z,13.40
2019-05-01T06:24:26.591Z,13.60
2019-05-01T06:26:57.776Z,13.70
2019-05-01T06:29:31.056Z,13.90
2019-05-01T06:32:00.036Z,14.00
2019-05-01T06:34:30.948Z,14.10
2019-05-01T06:37:00.645Z,14.30
2019-05-01T06:39:30.484Z,14.40
2019-05-01T06:42:00.109Z,14.60
2019-05-01T06:44:44.085Z,14.70
2019-05-01T06:47:16.056Z,14.90
2019-05-01T06:50:01.272Z,15.00
2019-05-01T06:52:30.721Z,15.10
2019-05-01T06:55:01.182Z,15.30
2019-05-01T06:57:31.805Z,15.40
2019-05-01T07:00:09.774Z,15.50
2019-05-01T07:02:40.331Z,15.60
2019-05-01T07:05:14.756Z,15.80
2019-05-01T07:07:52.919Z,15.90
2019-05-01T07:10:31.771Z,16.00
2019-05-01T07:13:05.260Z,16.10
2019-05-01T07:15:39.041Z,16.30
2019-05-01T07:18:13.975Z,16.40
2019-05-01T07:24:44.637Z,16.70
2019-05-01T07:26:25.117Z,16.80
2019-05-01T07:29:06.111Z,16.90
2019-05-01T07:31:49.718Z,17.00
2019-05-01T07:34:26.204Z,17.10
2019-05-01T07:36:56.942Z,17.20
2019-05-01T07:39:32.558Z,17.30
2019-05-01T07:42:00.854Z,17.50
2019-05-01T07:44:33.927Z,17.60
2019-05-01T07:47:26.014Z,17.80
2019-05-01T07:50:00.762Z,17.80
2019-05-01T07:52:33.357Z,17.90
2019-05-01T07:55:03.936Z,18.00
2019-05-01T07:57:34.393Z,18.10
2019-05-01T08:00:15.760Z,18.10
2019-05-01T08:02:42.588Z,18.10
2019-05-01T08:05:20.179Z,18.20
2019-05-01T08:07:51.084Z,18.30
2019-05-01T08:10:31.532Z,18.30
2019-05-01T08:13:00.597Z,18.40
2019-05-01T08:15:32.757Z,18.40
2019-05-01T08:18:15.615Z,18.50
2019-05-01T08:20:50.410Z,18.60
2019-05-01T08:23:18.251Z,18.70
2019-05-01T08:25:53.067Z,18.70
2019-05-01T08:28:40.464Z,18.80
2019-05-01T08:31:14.290Z,18.80
2019-05-01T08:33:51.624Z,18.90
2019-05-01T08:36:21.578Z,18.90
2019-05-01T08:38:50.426Z,19.00
2019-05-01T08:41:20.065Z,19.20
2019-05-01T08:43:54.197Z,19.40
2019-05-01T08:46:34.743Z,19.60
2019-05-01T08:49:11.356Z,19.60
2019-05-01T08:51:41.683Z,19.60
2019-05-01T08:54:20.582Z,19.70
2019-05-01T08:56:58.059Z,19.80
2019-05-01T08:59:27.197Z,19.80
2019-05-01T09:02:09.287Z,19.80
2019-05-01T09:04:39.712Z,19.90
2019-05-01T09:07:09.561Z,20.00
2019-05-01T09:09:45.410Z,20.20
2019-05-01T09:12:15.216Z,20.30
2019-05-01T09:14:45.035Z,20.50
2019-05-01T09:17:13.847Z,20.60
2019-05-01T09:19:43.537Z,20.60
2019-05-01T09:22:12.462Z,20.60
2019-05-01T09:24:42.244Z,20.60
2019-05-01T09:27:29.503Z,20.70
2019-05-01T09:30:04.341Z,20.70
2019-05-01T09:32:33.016Z,20.80
2019-05-01T09:35:14.610Z,20.80
2019-05-01T09:37:33.910Z,20.80
2019-05-01T09:40:09.252Z,20.80
2019-05-01T09:42:39.665Z,20.70
2019-05-01T09:45:14.268Z,20.80
2019-05-01T09:47:44.276Z,20.90
2019-05-01T09:50:25.846Z,20.90
2019-05-01T09:53:02.513Z,21.00
2019-05-01T09:55:39.451Z,21.00
2019-05-01T09:58:09.249Z,21.10
2019-05-01T10:00:38.188Z,21.10
2019-05-01T10:03:07.801Z,21.20
2019-05-01T10:05:37.978Z,21.20
2019-05-01T10:08:08.128Z,21.20
2019-05-01T10:10:38.435Z,21.20
2019-05-01T10:13:10.750Z,21.30
2019-05-01T10:15:39.952Z,21.50
2019-05-01T10:18:09.474Z,21.50
2019-05-01T10:20:39.195Z,21.50
2019-05-01T10:23:13.218Z,21.70
2019-05-01T10:25:42.964Z,21.70
2019-05-01T10:28:22.105Z,21.70
2019-05-01T10:30:59.635Z,21.80
2019-05-01T10:33:32.731Z,21.90
2019-05-01T10:36:04.082Z,21.70
2019-05-01T10:38:35.398Z,21.70
2019-05-01T10:41:09.198Z,21.70
2019-05-01T10:43:36.829Z,21.70
2019-05-01T10:46:08.228Z,21.80
2019-05-01T10:48:39.103Z,22.00
2019-05-01T10:51:08.836Z,22.20
2019-05-01T10:53:37.670Z,22.30
2019-05-01T10:56:08.181Z,22.40
2019-05-01T10:58:37.089Z,22.50
2019-05-01T11:01:26.119Z,22.70
2019-05-01T11:03:55.828Z,23.00
2019-05-01T11:06:24.597Z,23.10
2019-05-01T11:08:56.650Z,23.20
2019-05-01T11:11:28.072Z,23.30
2019-05-01T11:13:57.733Z,23.40
2019-05-01T11:16:26.574Z,23.30
2019-05-01T11:18:58.223Z,23.10
2019-05-01T11:21:27.601Z,23.10
2019-05-01T11:23:56.397Z,23.20
2019-05-01T11:26:26.313Z,23.50
2019-05-01T11:28:56.006Z,23.70
2019-05-01T11:31:26.478Z,24.00
2019-05-01T11:33:57.640Z,24.10
2019-05-01T11:36:43.957Z,24.20
2019-05-01T11:39:21.084Z,24.20
2019-05-01T11:41:54.881Z,24.20
2019-05-01T11:44:24.717Z,24.30
2019-05-01T11:46:54.559Z,24.30
2019-05-01T11:49:25.787Z,24.40
2019-05-01T11:51:55.503Z,24.30
2019-05-01T11:54:25.152Z,24.30
2019-05-01T11:56:53.987Z,24.20
2019-05-01T11:59:24.616Z,24.40
2019-05-01T12:01:55.499Z,24.50
2019-05-01T12:04:25.045Z,24.40
2019-05-01T12:06:53.939Z,24.30
2019-05-01T12:09:25.795Z,24.30
2019-05-01T12:11:57.161Z,24.60
2019-05-01T12:14:26.876Z,24.80
2019-05-01T12:16:57.396Z,24.80
2019-05-01T12:19:28.799Z,24.80
2019-05-01T12:21:58.511Z,24.80
2019-05-01T12:24:28.239Z,24.80
2019-05-01T12:26:59.206Z,24.70
2019-05-01T12:29:30.476Z,24.70
2019-05-01T12:31:59.240Z,24.70
2019-05-01T12:34:28.788Z,24.70
2019-05-01T12:37:16.949Z,24.60
2019-05-01T12:39:46.749Z,24.60
2019-05-01T12:42:20.579Z,24.50
2019-05-01T12:44:50.427Z,24.50
2019-05-01T12:47:24.335Z,24.40
2019-05-01T12:49:54.215Z,24.50
2019-05-01T12:52:25.487Z,24.60
2019-05-01T12:54:59.242Z,24.60
2019-05-01T12:57:28.953Z,24.60
2019-05-01T13:00:08.114Z,24.60
2019-05-01T13:02:29.012Z,24.60
2019-05-01T13:04:57.774Z,24.50
2019-05-01T13:07:27.506Z,24.70
2019-05-01T13:09:57.306Z,25.00
2019-05-01T13:12:26.925Z,25.30
2019-05-01T13:14:56.649Z,25.30
2019-05-01T13:17:27.494Z,25.40
2019-05-01T13:19:57.214Z,25.50
2019-05-01T13:22:26.795Z,25.60
2019-05-01T13:24:55.588Z,25.60
2019-05-01T13:27:29.339Z,25.70
2019-05-01T13:30:00.775Z,25.80
2019-05-01T13:32:44.354Z,26.00
2019-05-01T13:35:14.066Z,26.00
2019-05-01T13:37:43.742Z,26.10
2019-05-01T13:40:14.072Z,26.30
2019-05-01T13:42:43.921Z,26.20
2019-05-01T13:45:13.873Z,26.20
2019-05-01T13:47:43.543Z,26.40
2019-05-01T13:50:14.311Z,26.70
2019-05-01T13:52:44.086Z,27.10
2019-05-01T13:55:14.695Z,27.20
2019-05-01T13:57:44.489Z,27.10
2019-05-01T14:00:14.519Z,26.90
2019-05-01T14:02:45.223Z,26.90
2019-05-01T14:05:14.165Z,26.80
2019-05-01T14:07:43.771Z,26.70
2019-05-01T14:10:13.646Z,26.60
2019-05-01T14:12:43.340Z,26.70
2019-05-01T14:15:16.843Z,27.10
2019-05-01T14:17:46.543Z,27.30
2019-05-01T14:20:35.547Z,27.60
2019-05-01T14:23:18.827Z,27.90
2019-05-01T14:26:03.937Z,28.10
2019-05-01T14:28:35.948Z,28.30
2019-05-01T14:31:06.487Z,28.30
2019-05-01T14:33:36.077Z,28.20
2019-05-01T14:36:07.784Z,28.30
2019-05-01T14:38:37.531Z,28.40
2019-05-01T14:41:09.804Z,28.80
2019-05-01T14:43:39.467Z,29.10
2019-05-01T14:46:09.413Z,29.30
2019-05-01T14:48:40.193Z,29.60
2019-05-01T14:51:09.918Z,29.70
2019-05-01T14:53:41.147Z,29.80
2019-05-01T14:56:13.415Z,30.60
2019-05-01T14:58:43.284Z,31.90
2019-05-01T15:01:13.072Z,34.00
2019-05-01T15:03:42.934Z,35.10
2019-05-01T15:06:12.604Z,36.20
2019-05-01T15:08:43.314Z,37.50
2019-05-01T15:11:12.918Z,38.40
2019-05-01T15:13:51.055Z,39.30
2019-05-01T15:16:22.391Z,39.80
2019-05-01T15:18:59.740Z,40.60
2019-05-01T15:21:29.455Z,41.80
2019-05-01T15:23:59.107Z,42.50
2019-05-01T15:26:28.811Z,42.80
2019-05-01T15:28:58.475Z,42.70
2019-05-01T15:31:29.255Z,42.90
2019-05-01T15:33:59.031Z,42.90
2019-05-01T15:36:28.711Z,42.80
2019-05-01T15:38:59.037Z,42.80
2019-05-01T15:41:46.615Z,42.90
2019-05-01T15:44:33.000Z,43.30
2019-05-01T15:47:02.672Z,43.40
2019-05-01T15:49:32.512Z,44.20
2019-05-01T15:52:03.866Z,43.90
2019-05-01T15:54:33.570Z,43.80
2019-05-01T15:57:03.374Z,42.90
2019-05-01T15:59:32.917Z,41.60
2019-05-01T16:02:02.645Z,40.80
2019-05-01T16:04:32.414Z,40.60
2019-05-01T16:07:02.108Z,41.00
2019-05-01T16:09:31.772Z,41.60
2019-05-01T16:12:25.335Z,41.70
2019-05-01T16:14:55.171Z,42.00
2019-05-01T16:17:24.766Z,41.50
2019-05-01T16:19:54.408Z,40.70
2019-05-01T16:22:24.096Z,39.60
2019-05-01T16:24:53.678Z,38.40
2019-05-01T16:27:23.579Z,37.00
2019-05-01T16:29:53.230Z,36.20
2019-05-01T16:32:24.951Z,36.20
2019-05-01T16:34:54.922Z,36.30
2019-05-01T16:37:24.654Z,36.50
2019-05-01T16:40:01.561Z,36.60
2019-05-01T16:42:33.017Z,36.10
2019-05-01T16:45:02.688Z,35.80
2019-05-01T16:47:32.557Z,35.90
2019-05-01T16:50:02.248Z,35.80
2019-05-01T16:52:34.155Z,35.00
2019-05-01T16:55:05.364Z,33.60
2019-05-01T16:57:36.141Z,32.70
2019-05-01T17:00:10.555Z,32.60
2019-05-01T17:02:48.191Z,32.50
2019-05-01T17:05:22.373Z,32.10
2019-05-01T17:08:05.465Z,31.60
2019-05-01T17:10:39.934Z,31.10
2019-05-01T17:13:11.574Z,30.50
2019-05-01T17:15:42.555Z,30.00
2019-05-01T17:18:12.214Z,29.90
2019-05-01T17:20:41.983Z,30.10
2019-05-01T17:23:14.183Z,30.20
2019-05-01T17:25:44.953Z,30.40
2019-05-01T17:28:14.704Z,30.50
2019-05-01T17:30:49.517Z,30.60
2019-05-01T17:33:20.813Z,30.50
2019-05-01T17:35:52.146Z,30.30
2019-05-01T17:38:21.741Z,30.20
2019-05-01T17:40:53.561Z,29.80
2019-05-01T17:43:22.843Z,29.40
2019-05-01T17:45:52.668Z,29.10
2019-05-01T17:48:22.449Z,28.70
2019-05-01T17:50:54.965Z,28.10
2019-05-01T17:53:23.328Z,27.60
2019-05-01T17:55:52.883Z,27.10
2019-05-01T17:58:21.746Z,26.60
2019-05-01T18:00:55.600Z,26.20
2019-05-01T18:03:26.966Z,25.70
2019-05-01T18:06:01.308Z,25.30
2019-05-01T18:08:31.514Z,24.80
2019-05-01T18:11:01.232Z,24.30
2019-05-01T18:13:30.951Z,23.80
2019-05-01T18:16:02.547Z,23.30
2019-05-01T18:18:31.934Z,22.90
2019-05-01T18:21:00.846Z,22.50
2019-05-01T18:23:49.456Z,22.10
2019-05-01T18:26:23.517Z,21.80
2019-05-01T18:29:00.849Z,21.40
2019-05-01T18:31:35.138Z,21.10
2019-05-01T18:34:05.256Z,20.80
2019-05-01T18:36:54.997Z,20.50
2019-05-01T18:39:33.156Z,20.30
2019-05-01T18:42:07.044Z,20.10
2019-05-01T18:44:36.705Z,19.80
2019-05-01T18:47:05.718Z,19.60
2019-05-01T18:49:35.264Z,19.40
2019-05-01T18:52:05.861Z,19.20
2019-05-01T18:54:36.336Z,19.00
2019-05-01T18:57:06.467Z,18.90
2019-05-01T18:59:36.222Z,18.80
2019-05-01T19:02:05.171Z,18.70
2019-05-01T19:04:34.782Z,18.50
2019-05-01T19:07:04.778Z,18.40
2019-05-01T19:09:36.665Z,18.20
2019-05-01T19:12:07.703Z,18.10
2019-05-01T19:14:37.474Z,18.00
2019-05-01T19:17:07.080Z,17.90
2019-05-01T19:19:36.806Z,17.70
2019-05-01T19:22:07.511Z,17.60
2019-05-01T19:24:38.037Z,17.50
2019-05-01T19:27:08.583Z,17.30
2019-05-01T19:29:38.220Z,17.20
2019-05-01T19:32:08.299Z,17.10
2019-05-01T19:34:37.883Z,17.00
2019-05-01T19:37:07.569Z,16.90
2019-05-01T19:39:43.702Z,16.70
2019-05-01T19:42:09.749Z,16.70
2019-05-01T19:44:39.549Z,16.60
2019-05-01T19:47:09.189Z,16.60
2019-05-01T19:49:38.929Z,16.60
2019-05-01T19:52:08.682Z,16.60
2019-05-01T19:54:38.504Z,16.60
2019-05-01T19:57:10.483Z,16.50
2019-05-01T19:59:40.127Z,16.40
2019-05-01T20:02:11.685Z,16.30
2019-05-01T20:04:45.183Z,16.30
2019-05-01T20:07:15.689Z,16.30
2019-05-01T20:09:56.383Z,16.20
2019-05-01T20:12:15.555Z,16.20
2019-05-01T20:14:45.324Z,16.10
2019-05-01T20:17:15.119Z,15.90
2019-05-01T20:19:43.993Z,15.80
2019-05-01T20:22:13.726Z,15.60
2019-05-01T20:24:46.030Z,15.50
2019-05-01T20:27:18.309Z,15.40
2019-05-01T20:29:50.707Z,15.20
2019-05-01T20:32:21.109Z,15.20
2019-05-01T20:34:52.773Z,15.10
2019-05-01T20:37:23.990Z,15.10
2019-05-01T20:39:55.343Z,15.00
2019-05-01T20:42:25.030Z,15.00
2019-05-01T20:45:04.446Z,15.00
2019-05-01T20:47:35.065Z,14.90
2019-05-01T20:49:58.286Z,14.80
2019-05-01T20:52:29.051Z,14.70
2019-05-01T20:55:00.485Z,14.60
2019-05-01T20:57:34.556Z,14.60
2019-05-01T21:00:11.282Z,14.50
2019-05-01T21:02:43.145Z,14.50
2019-05-01T21:05:25.244Z,14.50
2019-05-01T21:07:59.232Z,14.50
2019-05-01T21:10:53.288Z,14.50
2019-05-01T21:13:25.104Z,14.50
2019-05-01T21:15:56.302Z,14.50
2019-05-01T21:18:27.728Z,14.60
2019-05-01T21:21:03.344Z,14.60
2019-05-01T21:23:33.447Z,14.60
2019-05-01T21:26:04.330Z,14.60
2019-05-01T21:28:34.135Z,14.60
2019-05-01T21:31:04.092Z,14.50
2019-05-01T21:33:33.931Z,14.40
2019-05-01T21:36:07.128Z,14.30
2019-05-01T21:38:35.085Z,14.10
2019-05-01T21:41:04.801Z,13.90
2019-05-01T21:43:36.992Z,13.80
2019-05-01T21:46:07.264Z,13.70
2019-05-01T21:48:37.027Z,13.70
2019-05-01T21:51:07.525Z,13.70
2019-05-01T21:53:41.603Z,13.70
2019-05-01T21:56:08.817Z,13.70
2019-05-01T21:58:38.452Z,13.70
2019-05-01T22:01:08.132Z,13.70
2019-05-01T22:03:38.202Z,13.70
2019-05-01T22:06:11.271Z,13.70
2019-05-01T22:08:39.002Z,13.70
2019-05-01T22:11:09.698Z,13.70
2019-05-01T22:13:39.335Z,13.70
2019-05-01T22:16:13.243Z,13.70
2019-05-01T22:18:56.260Z,13.70
2019-05-01T22:21:33.231Z,13.60
2019-05-01T22:24:04.669Z,13.70
2019-05-01T22:26:38.569Z,13.60
2019-05-01T22:29:13.429Z,13.60
2019-05-01T22:31:47.385Z,13.50
2019-05-01T22:34:33.327Z,13.50
2019-05-01T22:37:02.949Z,13.50
2019-05-01T22:39:34.231Z,13.50
2019-05-01T22:42:03.832Z,13.40
2019-05-01T22:44:33.374Z,13.50
2019-05-01T22:47:03.072Z,13.50
2019-05-01T22:49:32.816Z,13.40
2019-05-01T22:52:02.513Z,13.40
2019-05-01T22:54:32.168Z,13.30
2019-05-01T22:57:01.768Z,13.30
2019-05-01T22:59:31.337Z,13.20
2019-05-01T23:02:02.586Z,13.00
2019-05-01T23:04:32.355Z,12.80
2019-05-01T23:07:02.045Z,12.70
2019-05-01T23:09:32.327Z,12.50
2019-05-01T23:12:02.036Z,12.40
2019-05-01T23:14:32.727Z,12.30
2019-05-01T23:17:06.549Z,12.20
2019-05-01T23:19:37.244Z,12.20
2019-05-01T23:22:07.812Z,12.20
2019-05-01T23:24:37.515Z,12.10
2019-05-01T23:27:07.097Z,12.10
2019-05-01T23:29:36.725Z,12.10
2019-05-01T23:32:06.758Z,12.10
2019-05-01T23:34:36.530Z,12.10
2019-05-01T23:37:06.308Z,12.10
2019-05-01T23:39:40.270Z,12.10
2019-05-01T23:42:07.138Z,12.10
2019-05-01T23:44:38.126Z,12.10
2019-05-01T23:47:07.988Z,12.10
2019-05-01T23:49:37.654Z,12.10
2019-05-01T23:52:07.265Z,12.10
2019-05-01T23:54:36.808Z,12.10
2019-05-01T23:57:06.505Z,12.10
2019-05-01T23:59:36.134Z,12.20
